sensor_id;sensor_type;location;lat;lon;timestamp;temperature;humidity
6724;DHT22;3399;52.530;13.304;2023-04-24T00:00:16;12.80;99.90
6724;DHT22;3399;52.530;13.304;2023-04-24T00:02:43;12.80;99.90
6724;DHT22;3399;52.530;13.304;2023-04-24T00:05:16;12.80;99.90
6724;DHT22;3399;52.530;13.304;2023-04-24T00:07:43;12.70;99.90
6724;DHT22;3399;52.530;13.304;2023-04-24T00:10:09;12.70;99.90
6724;DHT22;3399;52.530;13.304;2023-04-24T00:12:35;12.70;99.90
6724;DHT22;3399;52.530;13.304;2023-04-24T00:15:00;12.70;99.90
6724;DHT22;3399;52.530;13.304;2023-04-24T00:17:26;12.70;99.90
6724;DHT22;3399;52.530;13.304;2023-04-24T00:19:52;12.70;99.90
6724;DHT22;3399;52.530;13.304;2023-04-24T00:22:24;12.60;99.90
6724;DHT22;3399;52.530;13.304;2023-04-24T00:24:49;12.60;99.90
6724;DHT22;3399;52.530;13.304;2023-04-24T00:27:15;12.60;99.90
6724;DHT22;3399;52.530;13.304;2023-04-24T00:29:40;12.60;99.90
6724;DHT22;3399;52.530;13.304;2023-04-24T00:32:06;12.60;99.90
6724;DHT22;3399;52.530;13.304;2023-04-24T00:34:31;12.60;99.90
6724;DHT22;3399;52.530;13.304;2023-04-24T00:36:57;12.60;99.90
6724;DHT22;3399;52.530;13.304;2023-04-24T00:39:23;12.60;99.90
6724;DHT22;3399;52.530;13.304;2023-04-24T00:41:48;12.50;99.90
6724;DHT22;3399;52.530;13.304;2023-04-24T00:44:16;12.50;99.90
6724;DHT22;3399;52.530;13.304;2023-04-24T00:46:42;12.50;99.90
6724;DHT22;3399;52.530;13.304;2023-04-24T00:49:08;12.40;99.90
6724;DHT22;3399;52.530;13.304;2023-04-24T00:51:33;12.50;99.90
6724;DHT22;3399;52.530;13.304;2023-04-24T00:54:00;12.50;99.90
6724;DHT22;3399;52.530;13.304;2023-04-24T00:56:26;12.50;99.90
6724;DHT22;3399;52.530;13.304;2023-04-24T00:58:52;12.60;99.90
6724;DHT22;3399;52.530;13.304;2023-04-24T01:01:21;12.60;99.90
6724;DHT22;3399;52.530;13.304;2023-04-24T01:03:50;12.60;99.90
6724;DHT22;3399;52.530;13.304;2023-04-24T01:06:16;12.60;99.90
6724;DHT22;3399;52.530;13.304;2023-04-24T01:08:43;12.60;99.90
6724;DHT22;3399;52.530;13.304;2023-04-24T01:11:09;12.70;99.90
6724;DHT22;3399;52.530;13.304;2023-04-24T01:13:35;12.70;99.90
6724;DHT22;3399;52.530;13.304;2023-04-24T01:16:00;12.60;99.90
6724;DHT22;3399;52.530;13.304;2023-04-24T01:18:27;12.60;99.90
6724;DHT22;3399;52.530;13.304;2023-04-24T01:20:56;12.60;99.90
6724;DHT22;3399;52.530;13.304;2023-04-24T01:23:22;12.60;99.90
6724;DHT22;3399;52.530;13.304;2023-04-24T01:25:49;12.70;99.90
6724;DHT22;3399;52.530;13.304;2023-04-24T01:28:14;12.70;99.90
6724;DHT22;3399;52.530;13.304;2023-04-24T01:30:41;12.70;99.90
6724;DHT22;3399;52.530;13.304;2023-04-24T01:33:07;12.70;99.90
6724;DHT22;3399;52.530;13.304;2023-04-24T01:35:33;12.80;99.90
6724;DHT22;3399;52.530;13.304;2023-04-24T01:37:58;12.80;99.90
6724;DHT22;3399;52.530;13.304;2023-04-24T01:40:24;12.80;99.90
6724;DHT22;3399;52.530;13.304;2023-04-24T01:42:50;12.80;99.90
6724;DHT22;3399;52.530;13.304;2023-04-24T01:45:16;12.80;99.90
6724;DHT22;3399;52.530;13.304;2023-04-24T01:47:41;12.80;99.90
6724;DHT22;3399;52.530;13.304;2023-04-24T01:50:07;12.80;99.90
6724;DHT22;3399;52.530;13.304;2023-04-24T01:52:33;12.80;99.90
6724;DHT22;3399;52.530;13.304;2023-04-24T01:55:00;12.70;99.90
6724;DHT22;3399;52.530;13.304;2023-04-24T01:57:26;12.70;99.90
6724;DHT22;3399;52.530;13.304;2023-04-24T01:59:51;12.70;99.90
6724;DHT22;3399;52.530;13.304;2023-04-24T02:02:17;12.60;99.90
6724;DHT22;3399;52.530;13.304;2023-04-24T02:04:43;12.50;99.90
6724;DHT22;3399;52.530;13.304;2023-04-24T02:07:08;12.50;99.90
6724;DHT22;3399;52.530;13.304;2023-04-24T02:09:34;12.60;99.90
6724;DHT22;3399;52.530;13.304;2023-04-24T02:11:59;12.50;99.90
6724;DHT22;3399;52.530;13.304;2023-04-24T02:14:25;12.50;99.90
6724;DHT22;3399;52.530;13.304;2023-04-24T02:16:51;12.50;99.90
6724;DHT22;3399;52.530;13.304;2023-04-24T02:19:16;12.50;99.90
6724;DHT22;3399;52.530;13.304;2023-04-24T02:21:42;12.40;99.90
6724;DHT22;3399;52.530;13.304;2023-04-24T02:24:07;12.40;99.90
6724;DHT22;3399;52.530;13.304;2023-04-24T02:26:33;12.40;99.90
6724;DHT22;3399;52.530;13.304;2023-04-24T02:28:58;12.40;99.90
6724;DHT22;3399;52.530;13.304;2023-04-24T02:31:32;12.40;99.90
6724;DHT22;3399;52.530;13.304;2023-04-24T02:33:59;12.40;99.90
6724;DHT22;3399;52.530;13.304;2023-04-24T02:36:24;12.40;99.90
6724;DHT22;3399;52.530;13.304;2023-04-24T02:38:50;12.40;99.90
6724;DHT22;3399;52.530;13.304;2023-04-24T02:41:15;12.40;99.90
6724;DHT22;3399;52.530;13.304;2023-04-24T02:43:41;12.40;99.90
6724;DHT22;3399;52.530;13.304;2023-04-24T02:46:06;12.40;99.90
6724;DHT22;3399;52.530;13.304;2023-04-24T02:48:32;12.40;99.90
6724;DHT22;3399;52.530;13.304;2023-04-24T02:50:57;12.40;99.90
6724;DHT22;3399;52.530;13.304;2023-04-24T02:53:23;12.40;99.90
6724;DHT22;3399;52.530;13.304;2023-04-24T02:55:49;12.40;99.90
6724;DHT22;3399;52.530;13.304;2023-04-24T02:58:14;12.40;99.90
6724;DHT22;3399;52.530;13.304;2023-04-24T03:00:41;12.40;99.90
6724;DHT22;3399;52.530;13.304;2023-04-24T03:03:06;12.40;99.90
6724;DHT22;3399;52.530;13.304;2023-04-24T03:05:32;12.40;99.90
6724;DHT22;3399;52.530;13.304;2023-04-24T03:07:57;12.40;99.90
6724;DHT22;3399;52.530;13.304;2023-04-24T03:10:23;12.40;99.90
6724;DHT22;3399;52.530;13.304;2023-04-24T03:12:49;12.50;99.90
6724;DHT22;3399;52.530;13.304;2023-04-24T03:15:15;12.50;99.90
6724;DHT22;3399;52.530;13.304;2023-04-24T03:17:40;12.50;99.90
6724;DHT22;3399;52.530;13.304;2023-04-24T03:20:06;12.50;99.90
6724;DHT22;3399;52.530;13.304;2023-04-24T03:22:33;12.60;99.90
6724;DHT22;3399;52.530;13.304;2023-04-24T03:24:59;12.60;99.90
6724;DHT22;3399;52.530;13.304;2023-04-24T03:27:25;12.60;99.90
6724;DHT22;3399;52.530;13.304;2023-04-24T03:29:50;12.60;99.90
6724;DHT22;3399;52.530;13.304;2023-04-24T03:32:24;12.60;99.90
6724;DHT22;3399;52.530;13.304;2023-04-24T03:34:50;12.60;99.90
6724;DHT22;3399;52.530;13.304;2023-04-24T03:37:16;12.60;99.90
6724;DHT22;3399;52.530;13.304;2023-04-24T03:39:42;12.60;99.90
6724;DHT22;3399;52.530;13.304;2023-04-24T03:42:08;12.60;99.90
6724;DHT22;3399;52.530;13.304;2023-04-24T03:44:34;12.60;99.90
6724;DHT22;3399;52.530;13.304;2023-04-24T03:47:00;12.50;99.90
6724;DHT22;3399;52.530;13.304;2023-04-24T03:49:26;12.60;99.90
6724;DHT22;3399;52.530;13.304;2023-04-24T03:51:51;12.60;99.90
6724;DHT22;3399;52.530;13.304;2023-04-24T03:54:18;12.60;99.90
6724;DHT22;3399;52.530;13.304;2023-04-24T03:56:43;12.50;99.90
6724;DHT22;3399;52.530;13.304;2023-04-24T03:59:09;12.50;99.90
6724;DHT22;3399;52.530;13.304;2023-04-24T04:01:34;12.50;99.90
6724;DHT22;3399;52.530;13.304;2023-04-24T04:04:03;12.60;99.90
6724;DHT22;3399;52.530;13.304;2023-04-24T04:06:28;12.60;99.90
6724;DHT22;3399;52.530;13.304;2023-04-24T04:08:56;12.60;99.90
6724;DHT22;3399;52.530;13.304;2023-04-24T04:11:21;12.60;99.90
6724;DHT22;3399;52.530;13.304;2023-04-24T04:13:47;12.50;99.90
6724;DHT22;3399;52.530;13.304;2023-04-24T04:16:13;12.50;99.90
6724;DHT22;3399;52.530;13.304;2023-04-24T04:18:39;12.50;99.90
6724;DHT22;3399;52.530;13.304;2023-04-24T04:21:04;12.50;99.90
6724;DHT22;3399;52.530;13.304;2023-04-24T04:23:30;12.50;99.90
6724;DHT22;3399;52.530;13.304;2023-04-24T04:25:57;12.50;99.90
6724;DHT22;3399;52.530;13.304;2023-04-24T04:28:23;12.50;99.90
6724;DHT22;3399;52.530;13.304;2023-04-24T04:30:50;12.40;99.90
6724;DHT22;3399;52.530;13.304;2023-04-24T04:33:19;12.40;99.90
6724;DHT22;3399;52.530;13.304;2023-04-24T04:35:45;12.40;99.90
6724;DHT22;3399;52.530;13.304;2023-04-24T04:38:14;12.40;99.90
6724;DHT22;3399;52.530;13.304;2023-04-24T04:40:40;12.40;99.90
6724;DHT22;3399;52.530;13.304;2023-04-24T04:43:06;12.40;99.90
6724;DHT22;3399;52.530;13.304;2023-04-24T04:45:31;12.40;99.90
6724;DHT22;3399;52.530;13.304;2023-04-24T04:47:58;12.50;99.90
6724;DHT22;3399;52.530;13.304;2023-04-24T04:50:26;12.50;99.90
6724;DHT22;3399;52.530;13.304;2023-04-24T04:52:52;12.50;99.90
6724;DHT22;3399;52.530;13.304;2023-04-24T04:55:17;12.60;99.90
6724;DHT22;3399;52.530;13.304;2023-04-24T04:57:43;12.60;99.90
6724;DHT22;3399;52.530;13.304;2023-04-24T05:00:09;12.60;99.90
6724;DHT22;3399;52.530;13.304;2023-04-24T05:02:36;12.60;99.90
6724;DHT22;3399;52.530;13.304;2023-04-24T05:05:01;12.60;99.90
6724;DHT22;3399;52.530;13.304;2023-04-24T05:07:27;12.60;99.90
6724;DHT22;3399;52.530;13.304;2023-04-24T05:09:52;12.60;99.90
6724;DHT22;3399;52.530;13.304;2023-04-24T05:12:18;12.60;99.90
6724;DHT22;3399;52.530;13.304;2023-04-24T05:14:44;12.70;99.90
6724;DHT22;3399;52.530;13.304;2023-04-24T05:17:09;12.70;99.90
6724;DHT22;3399;52.530;13.304;2023-04-24T05:19:35;12.70;99.90
6724;DHT22;3399;52.530;13.304;2023-04-24T05:22:03;12.70;99.90
6724;DHT22;3399;52.530;13.304;2023-04-24T05:24:30;12.70;99.90
6724;DHT22;3399;52.530;13.304;2023-04-24T05:26:56;12.70;99.90
6724;DHT22;3399;52.530;13.304;2023-04-24T05:29:22;12.70;99.90
6724;DHT22;3399;52.530;13.304;2023-04-24T05:31:47;12.70;99.90
6724;DHT22;3399;52.530;13.304;2023-04-24T05:34:13;12.80;99.90
6724;DHT22;3399;52.530;13.304;2023-04-24T05:36:39;12.80;99.90
6724;DHT22;3399;52.530;13.304;2023-04-24T05:39:04;12.80;99.90
6724;DHT22;3399;52.530;13.304;2023-04-24T05:41:30;12.80;99.90
6724;DHT22;3399;52.530;13.304;2023-04-24T05:43:55;12.80;99.90
6724;DHT22;3399;52.530;13.304;2023-04-24T05:46:21;12.90;99.90
6724;DHT22;3399;52.530;13.304;2023-04-24T05:48:47;12.90;99.90
6724;DHT22;3399;52.530;13.304;2023-04-24T05:51:12;12.90;99.90
6724;DHT22;3399;52.530;13.304;2023-04-24T05:53:37;13.00;99.90
6724;DHT22;3399;52.530;13.304;2023-04-24T05:56:03;13.00;99.90
6724;DHT22;3399;52.530;13.304;2023-04-24T05:58:29;13.00;99.90
6724;DHT22;3399;52.530;13.304;2023-04-24T06:00:54;13.10;99.90
6724;DHT22;3399;52.530;13.304;2023-04-24T06:03:20;13.20;99.90
6724;DHT22;3399;52.530;13.304;2023-04-24T06:05:45;13.30;99.90
6724;DHT22;3399;52.530;13.304;2023-04-24T06:08:11;13.40;99.90
6724;DHT22;3399;52.530;13.304;2023-04-24T06:10:37;13.50;99.90
6724;DHT22;3399;52.530;13.304;2023-04-24T06:13:02;13.60;99.90
6724;DHT22;3399;52.530;13.304;2023-04-24T06:15:29;13.70;99.90
6724;DHT22;3399;52.530;13.304;2023-04-24T06:17:56;13.70;99.90
6724;DHT22;3399;52.530;13.304;2023-04-24T06:20:22;13.70;99.90
6724;DHT22;3399;52.530;13.304;2023-04-24T06:22:47;13.70;99.90
6724;DHT22;3399;52.530;13.304;2023-04-24T06:25:12;14.00;99.90
6724;DHT22;3399;52.530;13.304;2023-04-24T06:27:38;14.10;99.90
6724;DHT22;3399;52.530;13.304;2023-04-24T06:30:04;14.20;99.90
6724;DHT22;3399;52.530;13.304;2023-04-24T06:32:29;14.30;99.90
6724;DHT22;3399;52.530;13.304;2023-04-24T06:34:56;14.30;99.90
6724;DHT22;3399;52.530;13.304;2023-04-24T06:37:21;14.40;99.90
6724;DHT22;3399;52.530;13.304;2023-04-24T06:39:47;14.40;99.90
6724;DHT22;3399;52.530;13.304;2023-04-24T06:42:15;14.30;99.90
6724;DHT22;3399;52.530;13.304;2023-04-24T06:44:40;14.40;99.90
6724;DHT22;3399;52.530;13.304;2023-04-24T06:47:09;14.50;99.90
6724;DHT22;3399;52.530;13.304;2023-04-24T06:49:39;14.60;99.90
6724;DHT22;3399;52.530;13.304;2023-04-24T06:52:05;14.80;99.90
6724;DHT22;3399;52.530;13.304;2023-04-24T06:54:31;15.00;99.90
6724;DHT22;3399;52.530;13.304;2023-04-24T06:56:56;15.10;99.90
6724;DHT22;3399;52.530;13.304;2023-04-24T06:59:26;15.20;99.90
6724;DHT22;3399;52.530;13.304;2023-04-24T07:01:52;15.30;99.90
6724;DHT22;3399;52.530;13.304;2023-04-24T07:04:17;15.40;99.90
6724;DHT22;3399;52.530;13.304;2023-04-24T07:06:45;15.10;99.90
6724;DHT22;3399;52.530;13.304;2023-04-24T07:09:11;15.00;99.90
6724;DHT22;3399;52.530;13.304;2023-04-24T07:11:38;15.00;99.90
6724;DHT22;3399;52.530;13.304;2023-04-24T07:14:06;15.00;99.90
6724;DHT22;3399;52.530;13.304;2023-04-24T07:16:31;14.90;99.90
6724;DHT22;3399;52.530;13.304;2023-04-24T07:18:57;15.00;99.90
6724;DHT22;3399;52.530;13.304;2023-04-24T07:21:22;15.10;99.90
6724;DHT22;3399;52.530;13.304;2023-04-24T07:23:48;15.20;99.90
6724;DHT22;3399;52.530;13.304;2023-04-24T07:26:13;15.10;99.90
6724;DHT22;3399;52.530;13.304;2023-04-24T07:28:40;15.00;99.90
6724;DHT22;3399;52.530;13.304;2023-04-24T07:31:06;15.10;99.90
6724;DHT22;3399;52.530;13.304;2023-04-24T07:33:31;15.20;99.90
6724;DHT22;3399;52.530;13.304;2023-04-24T07:35:57;15.20;99.90
6724;DHT22;3399;52.530;13.304;2023-04-24T07:38:22;15.30;99.90
6724;DHT22;3399;52.530;13.304;2023-04-24T07:40:48;15.30;99.90
6724;DHT22;3399;52.530;13.304;2023-04-24T07:43:14;15.50;99.90
6724;DHT22;3399;52.530;13.304;2023-04-24T07:45:40;15.60;99.90
6724;DHT22;3399;52.530;13.304;2023-04-24T07:48:06;15.70;99.90
6724;DHT22;3399;52.530;13.304;2023-04-24T07:50:31;15.90;99.90
6724;DHT22;3399;52.530;13.304;2023-04-24T07:52:57;16.20;99.90
6724;DHT22;3399;52.530;13.304;2023-04-24T07:55:23;16.40;99.90
6724;DHT22;3399;52.530;13.304;2023-04-24T07:57:48;16.60;99.90
6724;DHT22;3399;52.530;13.304;2023-04-24T08:00:14;16.70;99.90
6724;DHT22;3399;52.530;13.304;2023-04-24T08:02:40;16.60;99.90
6724;DHT22;3399;52.530;13.304;2023-04-24T08:05:06;16.50;99.90
6724;DHT22;3399;52.530;13.304;2023-04-24T08:07:31;16.70;99.90
6724;DHT22;3399;52.530;13.304;2023-04-24T08:09:57;16.70;99.90
6724;DHT22;3399;52.530;13.304;2023-04-24T08:12:22;16.90;99.00
6724;DHT22;3399;52.530;13.304;2023-04-24T08:14:48;16.80;99.00
6724;DHT22;3399;52.530;13.304;2023-04-24T08:17:13;16.70;99.30
6724;DHT22;3399;52.530;13.304;2023-04-24T08:19:40;16.60;99.40
6724;DHT22;3399;52.530;13.304;2023-04-24T08:22:09;16.50;99.90
6724;DHT22;3399;52.530;13.304;2023-04-24T08:24:35;16.60;99.90
6724;DHT22;3399;52.530;13.304;2023-04-24T08:27:02;16.70;99.90
6724;DHT22;3399;52.530;13.304;2023-04-24T08:29:27;16.90;99.90
6724;DHT22;3399;52.530;13.304;2023-04-24T08:31:52;16.90;99.60
6724;DHT22;3399;52.530;13.304;2023-04-24T08:34:20;16.90;99.30
6724;DHT22;3399;52.530;13.304;2023-04-24T08:36:45;17.00;98.60
6724;DHT22;3399;52.530;13.304;2023-04-24T08:39:11;16.90;98.40
6724;DHT22;3399;52.530;13.304;2023-04-24T08:41:37;17.00;98.30
6724;DHT22;3399;52.530;13.304;2023-04-24T08:44:03;17.20;97.90
6724;DHT22;3399;52.530;13.304;2023-04-24T08:46:30;17.20;98.00
6724;DHT22;3399;52.530;13.304;2023-04-24T08:48:56;17.40;97.80
6724;DHT22;3399;52.530;13.304;2023-04-24T08:51:22;17.50;97.60
6724;DHT22;3399;52.530;13.304;2023-04-24T08:53:51;17.50;97.70
6724;DHT22;3399;52.530;13.304;2023-04-24T08:56:19;17.70;97.40
6724;DHT22;3399;52.530;13.304;2023-04-24T08:58:45;17.70;97.10
6724;DHT22;3399;52.530;13.304;2023-04-24T09:01:12;17.60;97.20
6724;DHT22;3399;52.530;13.304;2023-04-24T09:03:37;17.50;97.10
6724;DHT22;3399;52.530;13.304;2023-04-24T09:06:04;17.60;97.20
6724;DHT22;3399;52.530;13.304;2023-04-24T09:08:31;17.70;97.10
6724;DHT22;3399;52.530;13.304;2023-04-24T09:10:58;17.70;97.20
6724;DHT22;3399;52.530;13.304;2023-04-24T09:13:24;17.80;96.90
6724;DHT22;3399;52.530;13.304;2023-04-24T09:15:50;17.80;96.30
6724;DHT22;3399;52.530;13.304;2023-04-24T09:18:15;17.80;96.20
6724;DHT22;3399;52.530;13.304;2023-04-24T09:21:01;17.90;96.30
6724;DHT22;3399;52.530;13.304;2023-04-24T09:23:31;17.90;96.00
6724;DHT22;3399;52.530;13.304;2023-04-24T09:25:57;17.90;96.10
6724;DHT22;3399;52.530;13.304;2023-04-24T09:28:34;17.80;96.70
6724;DHT22;3399;52.530;13.304;2023-04-24T09:31:13;17.80;96.90
6724;DHT22;3399;52.530;13.304;2023-04-24T09:33:56;17.90;97.20
6724;DHT22;3399;52.530;13.304;2023-04-24T09:36:33;18.10;96.90
6724;DHT22;3399;52.530;13.304;2023-04-24T09:39:00;18.00;97.10
6724;DHT22;3399;52.530;13.304;2023-04-24T09:41:26;17.80;97.90
6724;DHT22;3399;52.530;13.304;2023-04-24T09:43:56;17.50;98.20
6724;DHT22;3399;52.530;13.304;2023-04-24T09:46:29;17.40;98.80
6724;DHT22;3399;52.530;13.304;2023-04-24T09:48:55;17.50;98.90
6724;DHT22;3399;52.530;13.304;2023-04-24T09:51:34;17.60;98.50
6724;DHT22;3399;52.530;13.304;2023-04-24T09:54:20;17.50;98.20
6724;DHT22;3399;52.530;13.304;2023-04-24T09:56:50;17.40;98.50
6724;DHT22;3399;52.530;13.304;2023-04-24T09:59:18;17.40;98.60
6724;DHT22;3399;52.530;13.304;2023-04-24T10:01:45;17.30;98.80
6724;DHT22;3399;52.530;13.304;2023-04-24T10:04:18;17.20;98.30
6724;DHT22;3399;52.530;13.304;2023-04-24T10:06:44;17.00;98.50
6724;DHT22;3399;52.530;13.304;2023-04-24T10:09:11;17.00;98.30
6724;DHT22;3399;52.530;13.304;2023-04-24T10:11:46;17.10;98.30
6724;DHT22;3399;52.530;13.304;2023-04-24T10:14:14;17.50;98.10
6724;DHT22;3399;52.530;13.304;2023-04-24T10:16:41;17.80;97.50
6724;DHT22;3399;52.530;13.304;2023-04-24T10:19:07;17.70;97.00
6724;DHT22;3399;52.530;13.304;2023-04-24T10:21:34;17.50;97.40
6724;DHT22;3399;52.530;13.304;2023-04-24T10:24:01;17.20;98.00
6724;DHT22;3399;52.530;13.304;2023-04-24T10:26:29;17.00;98.40
6724;DHT22;3399;52.530;13.304;2023-04-24T10:28:57;16.80;98.80
6724;DHT22;3399;52.530;13.304;2023-04-24T10:31:23;16.70;99.20
6724;DHT22;3399;52.530;13.304;2023-04-24T10:33:50;16.60;99.40
6724;DHT22;3399;52.530;13.304;2023-04-24T10:36:17;16.50;99.80
6724;DHT22;3399;52.530;13.304;2023-04-24T10:38:43;16.50;99.90
6724;DHT22;3399;52.530;13.304;2023-04-24T10:41:12;16.40;99.60
6724;DHT22;3399;52.530;13.304;2023-04-24T10:44:03;16.30;99.70
6724;DHT22;3399;52.530;13.304;2023-04-24T10:46:30;16.20;99.60
6724;DHT22;3399;52.530;13.304;2023-04-24T10:48:55;16.10;99.80
6724;DHT22;3399;52.530;13.304;2023-04-24T10:51:22;16.10;99.80
6724;DHT22;3399;52.530;13.304;2023-04-24T10:53:50;16.20;99.90
6724;DHT22;3399;52.530;13.304;2023-04-24T10:56:16;16.30;99.90
6724;DHT22;3399;52.530;13.304;2023-04-24T10:58:49;16.60;99.90
6724;DHT22;3399;52.530;13.304;2023-04-24T11:01:25;17.00;99.90
6724;DHT22;3399;52.530;13.304;2023-04-24T11:03:55;17.70;99.40
6724;DHT22;3399;52.530;13.304;2023-04-24T11:06:29;18.00;98.50
6724;DHT22;3399;52.530;13.304;2023-04-24T11:09:08;18.10;98.10
6724;DHT22;3399;52.530;13.304;2023-04-24T11:11:35;18.10;97.90
6724;DHT22;3399;52.530;13.304;2023-04-24T11:14:03;18.10;97.70
6724;DHT22;3399;52.530;13.304;2023-04-24T11:16:35;18.10;97.90
6724;DHT22;3399;52.530;13.304;2023-04-24T11:19:08;18.10;97.30
6724;DHT22;3399;52.530;13.304;2023-04-24T11:22:13;17.90;97.20
6724;DHT22;3399;52.530;13.304;2023-04-24T11:24:48;17.80;97.10
6724;DHT22;3399;52.530;13.304;2023-04-24T11:27:17;17.60;97.50
6724;DHT22;3399;52.530;13.304;2023-04-24T11:32:38;16.70;99.90
6724;DHT22;3399;52.530;13.304;2023-04-24T11:35:07;15.80;99.90
6724;DHT22;3399;52.530;13.304;2023-04-24T11:37:37;15.30;99.90
6724;DHT22;3399;52.530;13.304;2023-04-24T11:40:05;14.80;99.90
6724;DHT22;3399;52.530;13.304;2023-04-24T11:42:41;14.40;99.90
6724;DHT22;3399;52.530;13.304;2023-04-24T11:45:14;14.10;99.90
6724;DHT22;3399;52.530;13.304;2023-04-24T11:47:41;14.00;99.90
6724;DHT22;3399;52.530;13.304;2023-04-24T11:50:09;14.20;99.90
6724;DHT22;3399;52.530;13.304;2023-04-24T11:52:39;14.70;99.90
6724;DHT22;3399;52.530;13.304;2023-04-24T11:57:50;16.00;99.90
6724;DHT22;3399;52.530;13.304;2023-04-24T12:00:30;16.90;99.90
6724;DHT22;3399;52.530;13.304;2023-04-24T12:03:09;18.10;99.90
6724;DHT22;3399;52.530;13.304;2023-04-24T12:05:38;19.20;99.90
6724;DHT22;3399;52.530;13.304;2023-04-24T12:08:04;19.80;99.90
6724;DHT22;3399;52.530;13.304;2023-04-24T12:10:31;20.10;99.90
6724;DHT22;3399;52.530;13.304;2023-04-24T12:12:58;19.80;99.90
6724;DHT22;3399;52.530;13.304;2023-04-24T12:15:24;19.50;99.90
6724;DHT22;3399;52.530;13.304;2023-04-24T12:17:52;19.30;99.90
6724;DHT22;3399;52.530;13.304;2023-04-24T12:20:23;19.10;99.90
6724;DHT22;3399;52.530;13.304;2023-04-24T12:22:53;18.80;99.90
6724;DHT22;3399;52.530;13.304;2023-04-24T12:25:31;18.50;99.90
6724;DHT22;3399;52.530;13.304;2023-04-24T12:30:33;18.10;99.90
6724;DHT22;3399;52.530;13.304;2023-04-24T12:32:59;18.90;99.00
6724;DHT22;3399;52.530;13.304;2023-04-24T12:35:28;19.60;96.10
6724;DHT22;3399;52.530;13.304;2023-04-24T12:37:53;19.60;94.30
6724;DHT22;3399;52.530;13.304;2023-04-24T12:40:20;19.10;90.70
6724;DHT22;3399;52.530;13.304;2023-04-24T12:42:48;18.60;89.30
6724;DHT22;3399;52.530;13.304;2023-04-24T12:45:14;18.30;89.80
6724;DHT22;3399;52.530;13.304;2023-04-24T12:47:41;18.10;90.40
6724;DHT22;3399;52.530;13.304;2023-04-24T12:50:09;17.80;91.90
6724;DHT22;3399;52.530;13.304;2023-04-24T12:52:35;17.50;93.00
6724;DHT22;3399;52.530;13.304;2023-04-24T12:55:00;17.50;93.30
6724;DHT22;3399;52.530;13.304;2023-04-24T12:57:29;17.50;94.00
6724;DHT22;3399;52.530;13.304;2023-04-24T12:59:56;17.60;94.40
6724;DHT22;3399;52.530;13.304;2023-04-24T13:02:23;17.70;93.40
6724;DHT22;3399;52.530;13.304;2023-04-24T13:04:49;17.80;92.50
6724;DHT22;3399;52.530;13.304;2023-04-24T13:07:15;17.70;92.90
6724;DHT22;3399;52.530;13.304;2023-04-24T13:09:42;17.70;93.00
6724;DHT22;3399;52.530;13.304;2023-04-24T13:12:09;17.80;92.80
6724;DHT22;3399;52.530;13.304;2023-04-24T13:14:35;17.90;92.60
6724;DHT22;3399;52.530;13.304;2023-04-24T13:17:00;18.70;91.50
6724;DHT22;3399;52.530;13.304;2023-04-24T13:19:26;20.00;81.50
6724;DHT22;3399;52.530;13.304;2023-04-24T13:21:56;20.30;75.30
6724;DHT22;3399;52.530;13.304;2023-04-24T13:24:22;20.00;74.00
6724;DHT22;3399;52.530;13.304;2023-04-24T13:26:50;19.30;78.20
6724;DHT22;3399;52.530;13.304;2023-04-24T13:29:16;18.90;86.60
6724;DHT22;3399;52.530;13.304;2023-04-24T13:31:42;18.20;89.60
6724;DHT22;3399;52.530;13.304;2023-04-24T13:34:08;17.90;91.30
6724;DHT22;3399;52.530;13.304;2023-04-24T13:36:33;17.80;91.30
6724;DHT22;3399;52.530;13.304;2023-04-24T13:38:59;17.90;91.70
6724;DHT22;3399;52.530;13.304;2023-04-24T13:41:24;18.80;91.60
6724;DHT22;3399;52.530;13.304;2023-04-24T13:43:50;20.70;90.60
6724;DHT22;3399;52.530;13.304;2023-04-24T13:46:16;21.90;78.30
6724;DHT22;3399;52.530;13.304;2023-04-24T13:48:41;22.30;74.80
6724;DHT22;3399;52.530;13.304;2023-04-24T13:51:07;21.80;69.50
6724;DHT22;3399;52.530;13.304;2023-04-24T13:53:32;21.00;74.40
6724;DHT22;3399;52.530;13.304;2023-04-24T13:56:01;20.40;74.20
6724;DHT22;3399;52.530;13.304;2023-04-24T13:58:27;19.90;74.50
6724;DHT22;3399;52.530;13.304;2023-04-24T14:00:53;19.40;72.80
6724;DHT22;3399;52.530;13.304;2023-04-24T14:03:18;19.00;75.10
6724;DHT22;3399;52.530;13.304;2023-04-24T14:05:44;18.90;76.00
6724;DHT22;3399;52.530;13.304;2023-04-24T14:08:09;18.90;75.10
6724;DHT22;3399;52.530;13.304;2023-04-24T14:10:35;18.50;75.80
6724;DHT22;3399;52.530;13.304;2023-04-24T14:13:00;18.40;77.70
6724;DHT22;3399;52.530;13.304;2023-04-24T14:15:26;18.90;75.00
6724;DHT22;3399;52.530;13.304;2023-04-24T14:17:52;19.70;68.90
6724;DHT22;3399;52.530;13.304;2023-04-24T14:20:17;19.90;67.80
6724;DHT22;3399;52.530;13.304;2023-04-24T14:22:43;20.00;64.60
6724;DHT22;3399;52.530;13.304;2023-04-24T14:25:09;20.30;62.20
6724;DHT22;3399;52.530;13.304;2023-04-24T14:27:34;20.80;59.30
6724;DHT22;3399;52.530;13.304;2023-04-24T14:30:00;20.20;57.70
6724;DHT22;3399;52.530;13.304;2023-04-24T14:32:26;19.50;58.50
6724;DHT22;3399;52.530;13.304;2023-04-24T14:34:51;19.50;60.20
6724;DHT22;3399;52.530;13.304;2023-04-24T14:37:17;20.50;59.10
6724;DHT22;3399;52.530;13.304;2023-04-24T14:39:43;21.30;56.20
6724;DHT22;3399;52.530;13.304;2023-04-24T14:42:08;21.00;55.90
6724;DHT22;3399;52.530;13.304;2023-04-24T14:44:33;20.10;56.70
6724;DHT22;3399;52.530;13.304;2023-04-24T14:46:59;19.90;57.60
6724;DHT22;3399;52.530;13.304;2023-04-24T14:49:25;19.80;56.60
6724;DHT22;3399;52.530;13.304;2023-04-24T14:51:51;19.20;56.70
6724;DHT22;3399;52.530;13.304;2023-04-24T14:54:17;18.80;58.30
6724;DHT22;3399;52.530;13.304;2023-04-24T14:56:42;18.60;58.60
6724;DHT22;3399;52.530;13.304;2023-04-24T14:59:09;18.90;59.30
6724;DHT22;3399;52.530;13.304;2023-04-24T15:01:35;19.50;57.60
6724;DHT22;3399;52.530;13.304;2023-04-24T15:04:00;19.60;60.00
6724;DHT22;3399;52.530;13.304;2023-04-24T15:06:26;19.30;58.60
6724;DHT22;3399;52.530;13.304;2023-04-24T15:08:51;19.00;59.30
6724;DHT22;3399;52.530;13.304;2023-04-24T15:11:17;18.50;59.90
6724;DHT22;3399;52.530;13.304;2023-04-24T15:13:43;18.30;60.80
6724;DHT22;3399;52.530;13.304;2023-04-24T15:16:10;18.80;60.00
6724;DHT22;3399;52.530;13.304;2023-04-24T15:18:36;19.30;59.60
6724;DHT22;3399;52.530;13.304;2023-04-24T15:21:02;19.80;57.10
6724;DHT22;3399;52.530;13.304;2023-04-24T15:23:27;19.40;56.20
6724;DHT22;3399;52.530;13.304;2023-04-24T15:25:53;18.70;57.50
6724;DHT22;3399;52.530;13.304;2023-04-24T15:28:19;18.10;58.50
6724;DHT22;3399;52.530;13.304;2023-04-24T15:30:44;17.90;59.30
6724;DHT22;3399;52.530;13.304;2023-04-24T15:33:10;17.70;60.80
6724;DHT22;3399;52.530;13.304;2023-04-24T15:35:35;17.50;60.40
6724;DHT22;3399;52.530;13.304;2023-04-24T15:38:01;17.30;61.70
6724;DHT22;3399;52.530;13.304;2023-04-24T15:40:27;17.10;62.10
6724;DHT22;3399;52.530;13.304;2023-04-24T15:42:53;17.10;62.20
6724;DHT22;3399;52.530;13.304;2023-04-24T15:45:19;17.40;62.70
6724;DHT22;3399;52.530;13.304;2023-04-24T15:47:45;17.80;61.40
6724;DHT22;3399;52.530;13.304;2023-04-24T15:50:11;18.10;60.90